Time;durP1;ratioP1;P1;durP2;ratioP2;P2;SDS_P1;SDS_P2;PMS_P1;PMS_P2;Temp;Humidity;BMP_temperature;BMP_pressure;BME280_temperature;BME280_humidity;BME280_pressure;Samples;Min_cycle;Max_cycle;Signal;HPM_P1;HPM_P2
2023/08/26 07:12:50;;;;;;;17.40;5.10;;;;;;;19.09;53.72;99591.81;4951354;29;20060;-92
2023/08/26 07:15:23;;;;;;;11.70;4.47;;;;;;;19.17;51.12;99602.72;4941955;29;20041;-92
2023/08/26 07:17:49;;;;;;;8.50;4.40;;;;;;;19.07;51.77;99581.09;4925409;29;20039;-94
2023/08/26 07:20:15;;;;;;;15.73;5.87;;;;;;;19.65;55.12;99610.81;4958670;28;20043;-92
2023/08/26 07:22:43;;;;;;;10.27;4.55;;;;;;;19.63;50.18;99586.19;4939855;29;20110;-90
2023/08/26 07:25:10;;;;;;;11.65;4.80;;;;;;;19.74;51.81;99607.81;4934891;29;20146;-93
2023/08/26 07:27:40;;;;;;;12.20;5.40;;;;;;;19.54;51.98;99577.31;4906937;29;20134;-92
2023/08/26 07:30:07;;;;;;;19.45;6.55;;;;;;;19.93;52.87;99616.91;4933548;29;20055;-91
2023/08/26 07:32:40;;;;;;;43.33;15.23;;;;;;;20.27;53.03;99644.88;4947938;29;20731;-94
2023/08/26 07:35:53;;;;;;;;;;;;;;;;;;;;;
2023/08/26 07:38:28;;;;;;;10.73;5.00;;;;;;;20.31;51.04;99623.50;4925340;29;20043;-91
2023/08/26 07:40:54;;;;;;;19.30;7.05;;;;;;;20.10;51.80;99593.41;4966955;29;20114;-92
2023/08/26 07:43:20;;;;;;;23.60;8.52;;;;;;;20.70;52.47;99653.94;4945882;29;20039;-93
2023/08/26 07:45:48;;;;;;;31.50;11.43;;;;;;;20.93;52.60;99653.88;4926552;29;20043;-91
2023/08/26 07:48:16;;;;;;;16.10;5.15;;;;;;;20.70;50.04;99594.78;4925038;29;20591;-93
2023/08/26 07:50:47;;;;;;;28.20;6.85;;;;;;;21.03;50.24;99649.66;4928555;29;20039;-91
2023/08/26 07:53:19;;;;;;;23.48;8.77;;;;;;;20.55;52.02;99591.78;4920727;29;20039;-93
2023/08/26 07:55:48;;;;;;;14.35;6.97;;;;;;;20.56;52.06;99589.81;4944749;29;20046;-89
2023/08/26 07:58:14;;;;;;;9.60;4.95;;;;;;;20.62;51.40;99604.97;4912880;29;20044;-91
2023/08/26 08:01:03;;;;;;;24.00;9.57;;;;;;;20.97;51.64;99640.03;4915671;29;20031;-93
2023/08/26 08:03:38;;;;;;;20.98;7.45;;;;;;;20.80;52.32;99591.38;4933859;28;20051;-92
2023/08/26 08:06:05;;;;;;;13.73;5.85;;;;;;;20.54;49.80;99572.72;4971851;28;20037;-92
2023/08/26 08:08:32;;;;;;;14.63;5.18;;;;;;;20.93;49.55;99633.63;4905021;29;20039;-92
2023/08/26 08:10:58;;;;;;;16.33;6.95;;;;;;;20.59;50.02;99597.38;4899131;29;20067;-92
2023/08/26 08:13:42;;;;;;;;;;;;;;;;;;;;;
2023/08/26 08:16:36;;;;;;;12.27;6.88;;;;;;;20.56;50.92;99603.69;4963659;28;20053;-91
2023/08/26 08:19:04;;;;;;;9.50;4.30;;;;;;;20.42;48.47;99615.34;4939828;28;20074;-90
2023/08/26 08:21:31;;;;;;;10.82;5.15;;;;;;;20.18;49.51;99583.22;4972472;28;20039;-93
2023/08/26 08:24:03;;;;;;;13.60;4.40;;;;;;;20.15;49.44;99583.97;4937088;28;20070;-91
2023/08/26 08:26:49;;;;;;;13.60;5.45;;;;;;;20.15;51.15;99561.75;4953431;28;20069;-92
2023/08/26 08:29:16;;;;;;;11.93;4.68;;;;;;;20.24;50.54;99569.84;4954612;28;20039;-92
2023/08/26 08:31:51;;;;;;;23.88;4.85;;;;;;;20.25;50.93;99563.91;4942238;28;20058;-92
2023/08/26 08:34:19;;;;;;;13.20;4.68;;;;;;;20.54;51.34;99606.84;4940009;28;20661;-91
2023/08/26 08:36:46;;;;;;;11.32;5.15;;;;;;;20.31;51.81;99586.63;4947942;28;20057;-92
2023/08/26 08:39:12;;;;;;;10.95;5.00;;;;;;;20.60;51.77;99599.00;4929325;28;20043;-91
2023/08/26 08:41:42;;;;;;;11.23;5.07;;;;;;;20.06;51.71;99547.31;4944776;28;20377;-92
2023/08/26 08:44:12;;;;;;;18.05;5.40;;;;;;;20.15;53.01;99561.75;4917309;28;20043;-91
2023/08/26 08:46:39;;;;;;;11.20;5.43;;;;;;;20.27;52.12;99572.69;4942322;28;20130;-93
2023/08/26 08:49:06;;;;;;;12.88;5.20;;;;;;;20.24;53.09;99550.41;4932766;28;20046;-92
2023/08/26 08:54:47;;;;;;;;;;;;;;;20.47;51.40;99603.13;4899029;29;20063;-92
2023/08/26 08:57:25;;;;;;;13.25;5.25;;;;;;;20.20;53.20;99550.34;4884197;29;19940;-92
2023/08/26 08:59:57;;;;;;;11.63;5.25;;;;;;;20.19;51.87;99582.84;4877680;29;20057;-91
2023/08/26 09:02:32;;;;;;;17.60;5.30;;;;;;;20.26;53.26;99590.50;4884062;29;20462;-93
2023/08/26 09:06:00;;;;;;;10.70;4.90;;;;;;;20.07;53.67;99569.19;4872822;29;20041;-91
2023/08/26 09:08:41;;;;;;;15.05;6.35;;;;;;;19.84;53.23;99551.72;4891735;29;20051;-92
2023/08/26 09:11:39;;;;;;;9.60;5.85;;;;;;;19.71;54.30;99528.91;4898263;29;20199;-92
2023/08/26 09:14:08;;;;;;;17.45;6.10;;;;;;;19.75;55.19;99521.44;4865907;29;20052;-93
2023/08/26 09:16:52;;;;;;;16.75;6.95;;;;;;;19.67;54.86;99519.72;4873137;29;20040;-92
2023/08/26 09:20:38;;;;;;;16.60;6.32;;;;;;;19.76;55.96;99563.84;4902623;29;20080;-92
2023/08/26 09:31:47;;;;;;;13.00;4.43;;;;;;;19.23;55.15;99556.88;4764915;30;20056;-93
2023/08/26 09:34:26;;;;;;;9.23;4.50;;;;;;;18.98;55.53;99539.75;4782165;30;20056;-93
2023/08/26 09:36:55;;;;;;;8.25;3.97;;;;;;;18.98;55.06;99534.22;4768234;30;20147;-93
2023/08/26 09:39:22;;;;;;;7.75;4.60;;;;;;;19.18;55.06;99584.91;4781345;30;20047;-91
2023/08/26 09:42:32;;;;;;;;;;;;;;;;;;;;;
2023/08/26 09:45:49;;;;;;;11.52;4.68;;;;;;;19.00;55.36;99542.16;4787393;29;20062;-92
2023/08/26 09:48:27;;;;;;;15.35;5.30;;;;;;;18.80;55.32;99521.94;4771239;30;20115;-92
2023/08/26 09:50:54;;;;;;;11.27;5.00;;;;;;;19.00;55.80;99561.53;4740084;30;20060;-91
2023/08/26 09:53:31;;;;;;;8.52;4.45;;;;;;;18.82;55.81;99552.88;4757113;30;20085;-91
2023/08/26 09:55:59;;;;;;;9.95;4.85;;;;;;;18.82;56.46;99552.06;4786357;29;20044;-91
2023/08/26 09:58:29;;;;;;;;;;;;;;;19.02;56.33;99590.50;4774475;30;20055;-90
2023/08/26 10:01:03;;;;;;;10.95;6.15;;;;;;;18.68;57.20;99531.16;4758236;30;20086;-92
2023/08/26 10:08:27;;;;;;;27.35;9.93;;;;;;;18.65;58.89;99517.25;4805971;29;20079;-94
2023/08/26 10:10:57;;;;;;;20.83;10.18;;;;;;;18.87;59.81;99552.56;4835158;29;20073;-88
2023/08/26 10:13:33;;;;;;;21.23;9.80;;;;;;;18.94;60.60;99574.91;4822805;29;20058;-91
2023/08/26 10:16:26;;;;;;;11.27;6.60;;;;;;;18.80;61.25;99566.25;4840582;29;20102;-91
2023/08/26 10:18:59;;;;;;;11.45;5.43;;;;;;;18.69;62.41;99573.50;4786822;29;20158;-90
2023/08/26 10:24:28;;;;;;;12.00;5.50;;;;;;;18.27;61.35;99574.91;4824353;29;20057;-91
2023/08/26 10:26:58;;;;;;;12.90;6.93;;;;;;;18.22;61.73;99591.78;4825019;29;20102;-89
2023/08/26 10:29:42;;;;;;;11.50;6.25;;;;;;;17.92;61.97;99558.22;4843604;29;20050;-89
2023/08/26 10:32:21;;;;;;;11.00;5.72;;;;;;;18.01;63.82;99561.63;4842023;29;20137;-89
2023/08/26 10:34:58;;;;;;;10.90;6.50;;;;;;;17.97;64.17;99569.00;4795491;29;20077;-90
2023/08/26 10:37:34;;;;;;;14.50;6.45;;;;;;;18.12;65.20;99580.47;4842712;29;20061;-89
2023/08/26 10:40:46;;;;;;;12.68;6.55;;;;;;;17.64;65.17;99515.97;4860616;29;20124;-90
2023/08/26 10:43:15;;;;;;;13.88;6.30;;;;;;;17.77;65.73;99550.72;4841580;29;20045;-91
2023/08/26 10:45:57;;;;;;;9.65;5.53;;;;;;;17.73;66.42;99535.97;4972998;29;20062;-90
2023/08/26 10:48:56;;;;;;;8.85;5.80;;;;;;;17.73;67.75;99547.03;4940570;29;20106;-93
2023/08/26 10:51:27;;;;;;;11.38;6.20;;;;;;;17.80;68.33;99556.34;4941715;28;20046;-89
2023/08/26 10:54:03;;;;;;;12.18;6.10;;;;;;;17.82;67.87;99575.34;4956109;28;20055;-91
2023/08/26 10:56:34;;;;;;;10.90;6.07;;;;;;;17.44;68.69;99518.63;4954298;28;20043;-90
2023/08/26 10:59:03;;;;;;;8.20;5.57;;;;;;;17.83;69.21;99576.94;4939553;29;20047;-90
2023/08/26 11:01:47;;;;;;;11.77;5.60;;;;;;;17.50;69.52;99531.03;4947628;28;20043;-90
2023/08/26 11:04:15;;;;;;;11.63;5.70;;;;;;;17.59;68.19;99542.72;4963974;28;20073;-89
2023/08/26 11:06:44;;;;;;;10.52;5.63;;;;;;;17.56;69.75;99539.88;4969159;28;20042;-90
2023/08/26 11:09:10;;;;;;;15.77;6.00;;;;;;;17.42;70.50;99511.84;4964025;28;20023;-91
2023/08/26 11:11:49;;;;;;;12.07;5.77;;;;;;;17.27;70.82;99496.84;4975899;28;20053;-96
2023/08/26 11:14:17;;;;;;;17.38;6.35;;;;;;;17.45;70.38;99528.53;4956066;28;20041;-92
2023/08/26 11:16:47;;;;;;;16.60;6.32;;;;;;;17.35;70.78;99509.69;4950940;28;20114;-92
2023/08/26 11:19:28;;;;;;;20.60;7.65;;;;;;;17.51;70.83;99527.09;4949267;28;20039;-93
2023/08/26 11:21:56;;;;;;;19.55;7.78;;;;;;;17.23;71.53;99477.41;4958587;28;20059;-92
2023/08/26 11:24:34;;;;;;;22.67;8.60;;;;;;;17.52;71.16;99531.50;4956596;28;20051;-90
2023/08/26 11:27:01;;;;;;;30.42;10.18;;;;;;;17.35;70.58;99509.69;4947145;28;20035;-90
2023/08/26 11:29:28;;;;;;;27.92;9.65;;;;;;;17.61;70.46;99545.97;4952108;28;20051;-90
2023/08/26 11:31:55;;;;;;;29.33;9.57;;;;;;;17.14;71.62;99471.22;4949867;28;20051;-91
2023/08/26 11:34:27;;;;;;;22.75;9.02;;;;;;;17.05;69.21;99473.34;4945645;29;20035;-91
2023/08/26 11:37:35;;;;;;;21.80;8.70;;;;;;;17.58;70.66;99543.06;4962336;28;20117;-89
2023/08/26 11:42:51;;;;;;;26.00;9.50;;;;;;;17.11;70.50;99464.44;4897510;29;19923;-91
2023/08/26 11:45:20;;;;;;;19.52;10.32;;;;;;;17.18;70.09;99485.94;4929406;29;20039;-94
2023/08/26 11:48:03;;;;;;;22.33;10.88;;;;;;;17.57;71.37;99538.72;4924677;29;20068;-92
2023/08/26 11:50:42;;;;;;;33.67;11.50;;;;;;;17.34;69.13;99508.09;4929154;29;20050;-92
2023/08/26 11:53:38;;;;;;;19.95;9.77;;;;;;;17.31;69.64;99517.09;4928110;29;20550;-91
2023/08/26 11:56:07;;;;;;;18.20;9.02;;;;;;;17.03;68.33;99487.53;4923258;29;20068;-92
2023/08/26 11:58:38;;;;;;;17.52;9.70;;;;;;;17.32;69.51;99516.75;4936251;29;20038;-91
2023/08/26 12:01:07;;;;;;;19.05;10.15;;;;;;;17.22;69.82;99499.84;4932340;29;20150;-92
2023/08/26 12:04:03;;;;;;;14.18;9.07;;;;;;;17.26;69.98;99507.09;4907689;29;20108;-93
2023/08/26 12:06:48;;;;;;;16.35;8.98;;;;;;;17.49;71.04;99534.97;4940374;29;20054;-92
2023/08/26 12:09:16;;;;;;;19.05;9.07;;;;;;;17.29;71.06;99486.25;4906731;29;20129;-91
2023/08/26 12:49:17;;;;;;;26.25;10.27;;;;;;;17.18;74.07;99447.25;4986718;28;20069;-94
2023/08/26 12:51:59;;;;;;;16.08;10.25;;;;;;;17.09;73.46;99454.94;4960577;28;20050;-93
2023/08/26 12:58:25;;;;;;;21.35;11.80;;;;;;;17.47;74.96;99519.88;4899116;29;20048;-93
2023/08/26 13:01:12;;;;;;;22.37;11.13;;;;;;;17.12;74.56;99448.72;4901381;29;20107;-92
2023/08/26 13:07:58;;;;;;;17.80;10.18;;;;;;;17.74;74.90;99520.97;4847499;29;20047;-92
2023/08/26 13:10:53;;;;;;;21.42;10.60;;;;;;;17.28;74.59;99460.56;4784087;29;20065;-93
2023/08/26 13:16:41;;;;;;;23.50;10.82;;;;;;;17.27;75.60;99474.75;4841325;29;19969;-95
2023/08/26 13:19:22;;;;;;;16.70;10.25;;;;;;;17.35;75.41;99490.34;4897931;29;20029;-92
2023/08/26 13:22:31;;;;;;;17.90;11.32;;;;;;;17.52;75.78;99509.38;4939916;29;20073;-91
2023/08/26 14:35:26;;;;;;;15.50;8.75;;;;;;;17.36;76.73;99406.31;5103754;23;20043;-91
2023/08/26 15:10:31;;;;;;;25.33;11.55;;;;;;;17.67;77.20;99421.28;5752586;23;20149;-96
2023/08/26 15:13:28;;;;;;;;;;;;;;;;;;;;;
2023/08/26 15:16:15;;;;;;;25.10;12.25;;;;;;;17.41;77.94;99380.34;4977672;28;20038;-92
2023/08/26 15:19:28;;;;;;;20.77;11.52;;;;;;;17.26;78.07;99357.09;4930039;29;20043;-95
2023/08/26 15:25:57;;;;;;;20.85;11.50;;;;;;;17.32;77.53;99377.78;4774131;30;20043;-93
2023/08/26 15:37:31;;;;;;;;;;;;;;;;;;;;;
2023/08/26 15:44:02;;;;;;;28.58;13.02;;;;;;;17.27;79.51;99403.69;4867657;29;20080;-95
2023/08/26 15:47:00;;;;;;;24.95;13.30;;;;;;;16.87;79.48;99332.84;4852818;29;20098;-96
2023/08/26 15:49:27;;;;;;;22.52;12.77;;;;;;;17.08;79.72;99373.22;4848170;29;20045;-93
2023/08/26 15:51:53;;;;;;;;;;;;;;;17.25;79.73;99407.97;4838719;29;20037;-95
2023/08/26 15:54:20;;;;;;;25.65;13.68;;;;;;;16.64;79.68;99331.78;4882200;29;19932;-93
2023/08/26 15:56:55;;;;;;;29.17;12.73;;;;;;;16.55;80.18;99322.88;4880252;29;20516;-93
2023/08/26 17:14:09;;;;;;;30.58;15.18;;;;;;;15.45;83.19;99297.19;5021575;28;20101;-92
2023/08/26 17:16:38;;;;;;;21.38;13.48;;;;;;;15.91;83.29;99364.00;4987693;28;20096;-92
2023/08/26 17:19:10;;;;;;;23.13;13.13;;;;;;;15.55;83.00;99304.19;4987330;28;20034;-92
2023/08/26 17:21:36;;;;;;;19.27;12.82;;;;;;;15.61;83.04;99315.78;4971256;28;20038;-91
2023/08/26 17:24:03;;;;;;;22.20;13.83;;;;;;;15.79;82.86;99352.19;4982273;28;20240;-91
2023/08/26 17:26:33;;;;;;;26.55;13.82;;;;;;;15.70;83.04;99338.53;4989948;28;20046;-91
2023/08/26 17:29:04;;;;;;;23.08;13.65;;;;;;;15.58;82.73;99320.03;4984498;28;20060;-92
2023/08/26 17:31:36;;;;;;;27.00;13.23;;;;;;;15.81;82.45;99356.19;4984438;28;20691;-92
2023/08/26 17:34:03;;;;;;;40.85;22.25;;;;;;;15.56;82.23;99333.34;4986834;28;20412;-90
2023/08/26 17:51:23;;;;;;;64.78;33.22;;;;;;;15.24;83.28;99294.56;5858038;23;20046;-94
